createdAt,value
2018-03-06T00:01:01.734Z,26.50
2018-03-06T00:03:29.555Z,26.63
2018-03-06T00:05:57.824Z,29.90
2018-03-06T00:08:26.110Z,21.27
2018-03-06T00:10:54.391Z,28.07
2018-03-06T00:13:22.640Z,25.87
2018-03-06T00:15:50.750Z,29.60
2018-03-06T00:18:18.247Z,25.50
2018-03-06T00:20:45.751Z,36.40
2018-03-06T00:23:13.471Z,30.57
2018-03-06T00:25:41.009Z,26.00
2018-03-06T00:28:09.296Z,28.43
2018-03-06T00:30:36.809Z,29.90
2018-03-06T00:33:05.151Z,31.67
2018-03-06T00:35:32.659Z,30.07
2018-03-06T00:38:00.185Z,29.57
2018-03-06T00:40:28.533Z,32.87
2018-03-06T00:42:56.055Z,27.70
2018-03-06T00:45:23.576Z,26.47
2018-03-06T00:47:51.102Z,30.03
2018-03-06T00:50:18.874Z,30.97
2018-03-06T00:52:46.419Z,35.63
2018-03-06T00:55:14.731Z,28.60
2018-03-06T00:57:42.245Z,35.43
2018-03-06T01:00:09.786Z,33.70
2018-03-06T01:02:37.311Z,36.70
2018-03-06T01:05:04.823Z,34.27
2018-03-06T01:07:32.317Z,35.40
2018-03-06T01:09:59.865Z,32.47
2018-03-06T01:12:28.273Z,31.33
2018-03-06T01:14:56.439Z,34.20
2018-03-06T01:17:24.780Z,35.53
2018-03-06T01:19:52.392Z,46.00
2018-03-06T01:22:20.014Z,36.43
2018-03-06T01:24:47.638Z,29.43
2018-03-06T01:27:15.205Z,35.77
2018-03-06T01:29:43.568Z,34.37
2018-03-06T01:32:11.114Z,38.30
2018-03-06T01:34:38.661Z,42.97
2018-03-06T01:37:06.205Z,37.17
2018-03-06T01:39:33.747Z,37.20
2018-03-06T01:42:01.397Z,43.37
2018-03-06T01:44:29.062Z,41.37
2018-03-06T01:46:56.618Z,38.87
2018-03-06T01:49:24.217Z,38.83
2018-03-06T01:51:58.561Z,27.90
2018-03-06T01:54:26.157Z,34.17
2018-03-06T01:56:53.731Z,38.90
2018-03-06T01:59:21.291Z,33.47
2018-03-06T02:01:48.954Z,43.33
2018-03-06T02:04:17.302Z,47.50
2018-03-06T02:06:44.875Z,42.87
2018-03-06T02:09:12.660Z,39.40
2018-03-06T02:11:40.246Z,55.30
2018-03-06T02:14:08.556Z,53.37
2018-03-06T02:16:36.112Z,55.07
2018-03-06T02:19:03.735Z,45.90
2018-03-06T02:21:31.685Z,50.53
2018-03-06T02:23:59.224Z,49.87
2018-03-06T02:26:27.678Z,46.67
2018-03-06T02:28:57.056Z,54.67
2018-03-06T02:31:24.632Z,44.60
2018-03-06T02:33:52.163Z,49.83
2018-03-06T02:36:19.698Z,47.87
2018-03-06T02:38:47.269Z,44.87
2018-03-06T02:41:15.566Z,51.63
2018-03-06T02:43:43.068Z,43.63
2018-03-06T02:46:12.184Z,47.00
2018-03-06T02:48:39.712Z,45.17
2018-03-06T02:51:07.219Z,48.20
2018-03-06T02:53:34.732Z,41.83
2018-03-06T02:56:02.266Z,47.43
2018-03-06T02:58:29.805Z,42.70
2018-03-06T03:00:58.085Z,53.17
2018-03-06T03:03:25.613Z,41.70
2018-03-06T03:05:53.146Z,45.33
2018-03-06T03:08:20.639Z,43.90
2018-03-06T03:10:48.156Z,50.63
2018-03-06T03:13:16.438Z,54.83
2018-03-06T03:15:43.936Z,47.23
2018-03-06T03:18:12.228Z,43.90
2018-03-06T03:20:40.497Z,48.23
2018-03-06T03:23:08.771Z,45.40
2018-03-06T03:25:37.033Z,44.60
2018-03-06T03:28:04.536Z,51.27
2018-03-06T03:30:32.044Z,54.93
2018-03-06T03:32:59.570Z,57.73
2018-03-06T03:35:27.077Z,55.33
2018-03-06T03:37:55.377Z,51.60
2018-03-06T03:40:22.892Z,47.93
2018-03-06T03:42:50.398Z,42.63
2018-03-06T03:45:17.924Z,50.07
2018-03-06T03:47:46.182Z,47.27
2018-03-06T03:50:13.676Z,41.07
2018-03-06T03:52:41.207Z,44.03
2018-03-06T03:55:08.716Z,43.60
2018-03-06T03:57:36.251Z,47.97
2018-03-06T04:00:03.807Z,47.60
2018-03-06T04:02:31.264Z,42.00
2018-03-06T04:04:59.570Z,51.73
2018-03-06T04:07:27.073Z,50.00
2018-03-06T04:09:54.618Z,48.43
2018-03-06T04:12:22.156Z,54.63
2018-03-06T04:14:50.420Z,50.93
2018-03-06T04:17:18.011Z,58.27
2018-03-06T04:19:45.455Z,58.40
2018-03-06T04:22:12.960Z,51.17
2018-03-06T04:24:41.236Z,47.70
2018-03-06T04:27:09.503Z,48.23
2018-03-06T04:29:37.804Z,47.00
2018-03-06T04:32:05.306Z,49.50
2018-03-06T04:34:32.812Z,49.27
2018-03-06T04:37:00.317Z,53.40
2018-03-06T04:39:28.609Z,46.93
2018-03-06T04:41:56.141Z,39.13
2018-03-06T04:44:23.664Z,55.20
2018-03-06T04:46:51.179Z,50.20
2018-03-06T04:49:18.675Z,46.83
2018-03-06T04:51:46.183Z,52.20
2018-03-06T04:54:13.693Z,42.60
2018-03-06T04:56:41.204Z,53.07
2018-03-06T04:59:08.700Z,41.50
2018-03-06T05:01:36.998Z,47.77
2018-03-06T05:04:05.246Z,48.20
2018-03-06T05:06:33.537Z,49.93
2018-03-06T05:09:01.803Z,51.93
2018-03-06T05:11:30.091Z,47.43
2018-03-06T05:13:57.600Z,56.20
2018-03-06T05:16:25.099Z,61.90
2018-03-06T05:18:52.635Z,57.47
2018-03-06T05:21:20.160Z,64.67
2018-03-06T05:23:47.701Z,65.20
2018-03-06T05:26:15.220Z,64.17
2018-03-06T05:28:42.755Z,63.53
2018-03-06T05:31:11.005Z,59.70
2018-03-06T05:33:38.544Z,66.10
2018-03-06T05:36:06.060Z,76.43
2018-03-06T05:38:33.555Z,78.63
2018-03-06T05:41:01.817Z,85.23
2018-03-06T05:43:30.145Z,72.57
2018-03-06T05:45:58.419Z,72.47
2018-03-06T05:48:25.940Z,63.53
2018-03-06T05:50:53.447Z,58.33
2018-03-06T05:53:20.964Z,54.17
2018-03-06T05:55:48.462Z,57.57
2018-03-06T05:58:15.956Z,49.87
2018-03-06T06:00:43.469Z,57.07
2018-03-06T06:03:10.978Z,50.60
2018-03-06T06:05:39.281Z,49.83
2018-03-06T06:08:07.593Z,53.37
2018-03-06T06:10:35.146Z,49.70
2018-03-06T06:13:03.528Z,47.63
2018-03-06T06:15:31.045Z,45.50
2018-03-06T06:17:59.333Z,51.57
2018-03-06T06:20:26.859Z,62.33
2018-03-06T06:22:54.375Z,59.30
2018-03-06T06:25:22.156Z,60.77
2018-03-06T06:27:49.666Z,55.83
2018-03-06T06:30:17.172Z,61.77
2018-03-06T06:32:44.684Z,53.27
2018-03-06T06:35:12.172Z,56.87
2018-03-06T06:37:39.704Z,63.23
2018-03-06T06:40:07.216Z,56.93
2018-03-06T06:42:34.710Z,50.17
2018-03-06T06:45:02.298Z,52.53
2018-03-06T06:47:29.757Z,56.73
2018-03-06T06:49:57.276Z,54.70
2018-03-06T06:52:24.783Z,51.70
2018-03-06T06:54:52.295Z,57.07
2018-03-06T06:57:20.562Z,48.70
2018-03-06T06:59:49.106Z,44.33
2018-03-06T07:02:16.621Z,49.87
2018-03-06T07:04:44.380Z,50.37
2018-03-06T07:07:11.887Z,52.77
2018-03-06T07:09:39.405Z,57.47
2018-03-06T07:12:06.912Z,57.23
2018-03-06T07:14:34.411Z,55.60
2018-03-06T07:17:01.918Z,46.27
2018-03-06T07:19:29.392Z,56.40
2018-03-06T07:21:56.891Z,53.37
2018-03-06T07:24:24.615Z,60.60
2018-03-06T07:26:52.125Z,52.80
2018-03-06T07:29:19.609Z,58.00
2018-03-06T07:31:47.120Z,50.60
2018-03-06T07:34:14.625Z,55.53
2018-03-06T07:36:42.111Z,52.57
2018-03-06T07:39:09.602Z,55.20
2018-03-06T07:41:37.096Z,54.23
2018-03-06T07:44:04.589Z,43.73
2018-03-06T07:46:32.085Z,52.07
2018-03-06T07:48:59.580Z,52.50
2018-03-06T07:51:27.063Z,57.90
2018-03-06T07:53:54.540Z,53.80
2018-03-06T07:56:22.654Z,53.20
2018-03-06T07:58:50.174Z,56.10
2018-03-06T08:01:18.598Z,59.27
2018-03-06T08:03:46.092Z,62.37
2018-03-06T08:06:13.590Z,64.00
2018-03-06T08:08:41.072Z,55.67
2018-03-06T08:11:08.580Z,51.27
2018-03-06T08:13:36.064Z,60.17
2018-03-06T08:16:03.571Z,67.93
2018-03-06T08:18:31.039Z,65.07
2018-03-06T08:20:59.620Z,65.73
2018-03-06T08:23:27.120Z,65.30
2018-03-06T08:25:54.607Z,66.23
2018-03-06T08:28:22.109Z,67.70
2018-03-06T08:30:50.436Z,73.30
2018-03-06T08:33:17.922Z,65.47
2018-03-06T08:35:52.485Z,72.07
2018-03-06T08:38:19.985Z,61.47
2018-03-06T08:40:47.488Z,64.53
2018-03-06T08:43:14.952Z,64.10
2018-03-06T08:45:42.440Z,68.70
2018-03-06T08:48:09.917Z,79.70
2018-03-06T08:50:37.406Z,72.10
2018-03-06T08:53:13.256Z,76.13
2018-03-06T08:55:40.823Z,71.27
2018-03-06T08:58:08.319Z,63.90
2018-03-06T09:00:35.844Z,76.67
2018-03-06T09:03:03.354Z,68.97
2018-03-06T09:05:30.847Z,66.70
2018-03-06T09:07:58.321Z,72.83
2018-03-06T09:10:25.850Z,68.83
2018-03-06T09:12:53.343Z,76.93
2018-03-06T09:15:21.535Z,61.67
2018-03-06T09:17:49.898Z,69.73
2018-03-06T09:20:17.379Z,71.93
2018-03-06T09:22:44.914Z,68.73
2018-03-06T09:25:12.385Z,64.13
2018-03-06T09:27:39.865Z,73.70
2018-03-06T09:30:07.400Z,64.00
2018-03-06T09:32:34.894Z,61.10
2018-03-06T09:35:02.400Z,62.87
2018-03-06T09:37:29.932Z,55.80
2018-03-06T09:39:57.455Z,63.60
2018-03-06T09:42:24.980Z,59.37
2018-03-06T09:44:52.489Z,60.53
2018-03-06T09:47:20.594Z,63.97
2018-03-06T09:49:48.087Z,69.87
2018-03-06T09:52:15.568Z,58.43
2018-03-06T09:54:43.067Z,55.83
2018-03-06T09:57:10.561Z,60.70
2018-03-06T09:59:38.100Z,61.63
2018-03-06T10:02:05.820Z,58.00
2018-03-06T10:04:33.320Z,57.57
2018-03-06T10:07:00.823Z,43.97
2018-03-06T10:09:30.335Z,51.87
2018-03-06T10:11:59.268Z,47.33
2018-03-06T10:14:26.752Z,51.87
2018-03-06T10:16:54.322Z,60.50
2018-03-06T10:19:21.818Z,49.70
2018-03-06T10:21:51.043Z,49.80
2018-03-06T10:24:18.529Z,49.23
2018-03-06T10:26:46.049Z,44.00
2018-03-06T10:29:13.545Z,46.77
2018-03-06T10:31:41.087Z,53.00
2018-03-06T10:34:08.635Z,52.40
2018-03-06T10:36:36.182Z,49.47
2018-03-06T10:39:04.444Z,46.13
2018-03-06T10:41:32.712Z,43.20
2018-03-06T10:44:00.987Z,47.30
2018-03-06T10:46:29.241Z,53.60
2018-03-06T10:48:56.735Z,51.50
2018-03-06T10:51:25.035Z,47.93
2018-03-06T10:53:52.534Z,44.90
2018-03-06T10:56:20.076Z,44.97
2018-03-06T10:58:47.543Z,46.10
2018-03-06T11:01:20.656Z,46.33
2018-03-06T11:03:48.924Z,47.97
2018-03-06T11:06:16.424Z,39.50
2018-03-06T11:08:43.907Z,37.13
2018-03-06T11:11:11.395Z,40.07
2018-03-06T11:13:38.923Z,40.50
2018-03-06T11:16:06.445Z,35.83
2018-03-06T11:18:33.977Z,31.20
2018-03-06T11:21:01.461Z,28.77
2018-03-06T11:23:28.996Z,26.80
2018-03-06T11:25:56.514Z,26.97
2018-03-06T11:28:25.103Z,25.73
2018-03-06T11:30:52.597Z,27.63
2018-03-06T11:33:20.884Z,28.53
2018-03-06T11:35:49.137Z,25.63
2018-03-06T11:38:16.647Z,23.80
2018-03-06T11:40:44.145Z,22.13
2018-03-06T11:43:11.622Z,25.73
2018-03-06T11:45:39.144Z,26.30
2018-03-06T11:48:06.611Z,28.83
2018-03-06T11:50:34.160Z,33.90
2018-03-06T11:53:01.657Z,36.57
2018-03-06T11:55:29.134Z,33.50
2018-03-06T11:57:56.643Z,34.50
2018-03-06T12:00:24.127Z,39.27
2018-03-06T12:02:52.446Z,35.77
2018-03-06T12:05:19.962Z,34.93
2018-03-06T12:07:47.458Z,31.83
2018-03-06T12:10:14.958Z,32.70
2018-03-06T12:12:42.474Z,37.80
2018-03-06T12:15:10.742Z,27.27
2018-03-06T12:17:38.219Z,32.83
2018-03-06T12:20:05.779Z,39.23
2018-03-06T12:22:33.293Z,31.37
2018-03-06T12:25:01.542Z,32.00
2018-03-06T12:27:29.056Z,24.43
2018-03-06T12:29:56.540Z,33.33
2018-03-06T12:32:24.040Z,28.50
2018-03-06T12:34:51.530Z,25.83
2018-03-06T12:37:19.025Z,22.30
2018-03-06T12:39:46.553Z,21.73
2018-03-06T12:42:14.832Z,22.40
2018-03-06T12:44:42.320Z,26.47
2018-03-06T12:47:09.810Z,30.20
2018-03-06T12:49:38.065Z,30.87
2018-03-06T12:52:05.571Z,30.97
2018-03-06T12:54:33.074Z,22.50
2018-03-06T12:57:00.555Z,22.20
2018-03-06T12:59:28.096Z,20.90
2018-03-06T13:01:55.577Z,24.13
2018-03-06T13:04:23.835Z,20.20
2018-03-06T13:06:51.354Z,28.10
2018-03-06T13:09:18.870Z,24.93
2018-03-06T13:11:46.386Z,25.80
2018-03-06T13:14:13.886Z,25.80
2018-03-06T13:16:42.128Z,25.03
2018-03-06T13:19:09.634Z,26.73
2018-03-06T13:21:37.130Z,22.80
2018-03-06T13:24:04.643Z,22.40
2018-03-06T13:26:32.150Z,20.97
2018-03-06T13:28:59.710Z,21.07
2018-03-06T13:31:28.381Z,15.60
2018-03-06T13:33:55.871Z,18.20
2018-03-06T13:36:23.724Z,19.93
2018-03-06T13:38:51.194Z,17.50
2018-03-06T13:41:18.678Z,17.27
2018-03-06T13:43:46.929Z,15.53
2018-03-06T13:46:14.420Z,18.70
2018-03-06T13:48:41.922Z,16.63
2018-03-06T13:51:09.411Z,16.87
2018-03-06T13:53:37.914Z,15.90
2018-03-06T13:56:05.465Z,19.53
2018-03-06T13:58:33.710Z,14.53
2018-03-06T14:01:01.244Z,17.30
2018-03-06T14:03:28.739Z,18.47
2018-03-06T14:05:56.230Z,15.87
2018-03-06T14:08:23.742Z,14.03
2018-03-06T14:10:51.248Z,15.83
2018-03-06T14:13:18.763Z,10.63
2018-03-06T14:15:46.255Z,16.70
2018-03-06T14:18:13.771Z,13.43
2018-03-06T14:20:41.293Z,15.20
2018-03-06T14:23:08.852Z,17.90
2018-03-06T14:25:36.327Z,15.70
2018-03-06T14:28:03.885Z,15.13
2018-03-06T14:30:31.359Z,15.93
2018-03-06T14:32:58.863Z,12.00
2018-03-06T14:35:26.359Z,9.00
2018-03-06T14:37:53.852Z,8.43
2018-03-06T14:40:22.130Z,7.13
2018-03-06T14:42:50.375Z,8.90
2018-03-06T14:45:17.872Z,6.40
2018-03-06T14:47:46.132Z,6.80
2018-03-06T14:50:13.628Z,7.40
2018-03-06T14:52:41.129Z,9.50
2018-03-06T14:55:08.641Z,6.30
2018-03-06T14:57:36.145Z,7.30
2018-03-06T15:00:03.616Z,9.03
2018-03-06T15:02:31.147Z,7.90
2018-03-06T15:04:58.628Z,8.67
2018-03-06T15:07:26.120Z,7.50
2018-03-06T15:09:53.621Z,6.00
2018-03-06T15:12:21.086Z,6.47
2018-03-06T15:14:48.580Z,6.50
2018-03-06T15:17:16.855Z,7.50
2018-03-06T15:19:45.134Z,8.90
2018-03-06T15:22:13.446Z,10.80
2018-03-06T15:24:40.931Z,7.90
2018-03-06T15:27:08.457Z,9.80
2018-03-06T15:29:35.950Z,8.37
2018-03-06T15:32:03.443Z,7.70
2018-03-06T15:34:30.960Z,6.13
2018-03-06T15:36:58.445Z,8.07
2018-03-06T15:39:25.977Z,7.80
2018-03-06T15:41:53.458Z,11.80
2018-03-06T15:44:21.724Z,9.50
2018-03-06T15:46:49.204Z,9.90
2018-03-06T15:49:17.464Z,6.30
2018-03-06T15:51:45.003Z,6.20
2018-03-06T15:54:12.569Z,7.10
2018-03-06T15:56:40.073Z,5.30
2018-03-06T15:59:07.592Z,4.53
2018-03-06T16:01:35.090Z,5.30
2018-03-06T16:04:02.595Z,5.73
2018-03-06T16:06:30.079Z,4.93
2018-03-06T16:08:58.682Z,9.00
2018-03-06T16:11:26.144Z,5.13
2018-03-06T16:13:53.647Z,5.97
2018-03-06T16:16:21.147Z,5.00
2018-03-06T16:18:49.392Z,6.90
2018-03-06T16:21:16.885Z,5.80
2018-03-06T16:23:45.141Z,9.67
2018-03-06T16:26:13.393Z,12.80
2018-03-06T16:28:40.898Z,10.47
2018-03-06T16:31:08.390Z,10.07
2018-03-06T16:33:35.895Z,10.93
2018-03-06T16:36:04.166Z,9.07
2018-03-06T16:38:31.658Z,14.53
2018-03-06T16:40:59.175Z,10.93
2018-03-06T16:43:26.662Z,13.50
2018-03-06T16:45:54.172Z,7.87
2018-03-06T16:48:21.642Z,9.57
2018-03-06T16:50:49.165Z,10.23
2018-03-06T16:53:18.578Z,14.00
2018-03-06T16:55:46.056Z,16.67
2018-03-06T16:58:13.555Z,19.37
2018-03-06T17:00:41.020Z,13.40
2018-03-06T17:03:08.522Z,17.00
2018-03-06T17:05:36.009Z,12.53
2018-03-06T17:08:04.272Z,11.93
2018-03-06T17:10:31.785Z,12.70
2018-03-06T17:12:59.274Z,11.70
2018-03-06T17:15:26.760Z,13.77
2018-03-06T17:17:54.272Z,15.13
2018-03-06T17:20:21.755Z,13.40
2018-03-06T17:22:49.273Z,18.07
2018-03-06T17:25:16.767Z,13.50
2018-03-06T17:27:44.269Z,27.23
2018-03-06T17:30:11.826Z,19.73
2018-03-06T17:32:39.314Z,20.00
2018-03-06T17:35:06.815Z,18.13
2018-03-06T17:37:34.299Z,18.93
2018-03-06T17:40:01.783Z,19.13
2018-03-06T17:42:29.291Z,20.17
2018-03-06T17:44:57.553Z,20.93
2018-03-06T17:47:25.062Z,17.03
2018-03-06T17:49:52.597Z,21.70
2018-03-06T17:52:20.071Z,22.67
2018-03-06T17:54:47.778Z,22.10
2018-03-06T17:57:15.266Z,24.27
2018-03-06T17:59:43.547Z,22.73
2018-03-06T18:02:11.780Z,27.23
2018-03-06T18:04:39.288Z,27.50
2018-03-06T18:07:07.585Z,25.23
2018-03-06T18:09:35.139Z,31.80
2018-03-06T18:12:02.620Z,29.23
2018-03-06T18:14:30.123Z,26.13
2018-03-06T18:16:57.574Z,29.47
2018-03-06T18:19:25.081Z,32.10
2018-03-06T18:21:52.576Z,27.70
2018-03-06T18:24:20.060Z,28.40
2018-03-06T18:26:47.542Z,25.93
2018-03-06T18:29:15.004Z,27.57
2018-03-06T18:31:42.506Z,29.77
2018-03-06T18:34:09.968Z,42.60
2018-03-06T18:36:37.471Z,33.23
2018-03-06T18:39:04.958Z,34.20
2018-03-06T18:41:32.468Z,31.70
2018-03-06T18:43:59.962Z,26.10
2018-03-06T18:46:27.448Z,27.97
2018-03-06T18:48:54.989Z,33.07
2018-03-06T18:51:22.456Z,29.47
2018-03-06T18:53:49.948Z,33.40
2018-03-06T18:56:18.200Z,33.17
2018-03-06T18:58:45.694Z,35.87
2018-03-06T19:04:38.689Z,38.17
2018-03-06T19:07:07.005Z,31.53
2018-03-06T19:09:34.536Z,28.63
2018-03-06T19:12:02.032Z,32.80
2018-03-06T19:14:30.419Z,36.20
2018-03-06T19:16:58.653Z,31.40
2018-03-06T19:19:26.136Z,29.33
2018-03-06T19:21:53.600Z,28.27
2018-03-06T19:24:21.082Z,37.43
2018-03-06T19:26:48.596Z,29.73
2018-03-06T19:29:16.080Z,30.40
2018-03-06T19:31:43.594Z,29.53
2018-03-06T19:34:11.081Z,37.67
2018-03-06T19:36:38.560Z,29.07
2018-03-06T19:39:06.053Z,34.90
2018-03-06T19:41:33.535Z,28.43
2018-03-06T19:44:01.035Z,29.70
2018-03-06T19:46:29.283Z,29.07
2018-03-06T19:48:56.748Z,27.67
2018-03-06T19:51:24.249Z,28.20
2018-03-06T19:53:51.718Z,20.27
2018-03-06T19:56:19.261Z,26.90
2018-03-06T19:58:46.773Z,32.17
2018-03-06T20:01:14.293Z,24.07
2018-03-06T20:03:41.783Z,24.60
2018-03-06T20:06:09.258Z,19.80
2018-03-06T20:08:50.487Z,23.07
2018-03-06T20:11:17.968Z,22.93
2018-03-06T20:13:45.498Z,22.53
2018-03-06T20:16:13.065Z,26.80
2018-03-06T20:18:43.445Z,32.10
2018-03-06T20:21:10.946Z,24.67
2018-03-06T20:23:38.408Z,22.43
2018-03-06T20:26:05.896Z,18.60
2018-03-06T20:28:33.617Z,22.27
2018-03-06T20:31:06.722Z,23.27
2018-03-06T20:33:34.212Z,21.80
2018-03-06T20:36:01.685Z,19.10
2018-03-06T20:38:35.661Z,17.30
2018-03-06T20:41:03.151Z,30.87
2018-03-06T20:43:31.413Z,18.17
2018-03-06T20:46:04.590Z,17.90
2018-03-06T20:48:32.065Z,25.67
2018-03-06T20:51:00.327Z,19.07
2018-03-06T20:53:33.570Z,18.23
2018-03-06T20:56:01.063Z,19.00
2018-03-06T20:58:28.545Z,20.30
2018-03-06T21:00:56.017Z,20.47
2018-03-06T21:03:24.278Z,19.43
2018-03-06T21:05:52.547Z,22.27
2018-03-06T21:08:20.064Z,27.83
2018-03-06T21:10:48.443Z,21.77
2018-03-06T21:13:15.931Z,20.30
2018-03-06T21:15:49.975Z,20.37
2018-03-06T21:18:17.472Z,19.87
2018-03-06T21:20:44.946Z,23.07
2018-03-06T21:23:18.807Z,24.90
2018-03-06T21:25:47.055Z,18.50
2018-03-06T21:28:14.560Z,21.63
2018-03-06T21:30:42.128Z,17.77
2018-03-06T21:33:09.667Z,20.40
2018-03-06T21:35:37.879Z,26.43
2018-03-06T21:38:05.369Z,22.77
2018-03-06T21:40:32.873Z,23.27
2018-03-06T21:43:00.368Z,25.10
2018-03-06T21:45:27.825Z,24.13
2018-03-06T21:47:55.308Z,27.37
2018-03-06T21:50:23.569Z,24.53
2018-03-06T21:52:51.080Z,30.87
2018-03-06T21:55:18.625Z,32.33
2018-03-06T21:57:46.089Z,25.40
2018-03-06T22:00:13.650Z,29.50
2018-03-06T22:02:41.188Z,24.47
2018-03-06T22:05:08.666Z,22.67
2018-03-06T22:07:36.149Z,32.43
2018-03-06T22:13:09.636Z,28.00
2018-03-06T22:15:41.808Z,27.07
2018-03-06T22:18:09.275Z,32.17
2018-03-06T22:20:36.754Z,33.77
2018-03-06T22:23:04.241Z,40.63
2018-03-06T22:25:32.475Z,31.27
2018-03-06T22:27:59.944Z,32.90
2018-03-06T22:30:27.404Z,38.47
2018-03-06T22:32:54.868Z,30.90
2018-03-06T22:35:22.361Z,31.10
2018-03-06T22:37:50.589Z,24.43
2018-03-06T22:40:18.077Z,22.43
2018-03-06T22:42:45.540Z,26.53
2018-03-06T22:45:13.774Z,22.90
2018-03-06T22:47:41.290Z,41.03
2018-03-06T22:50:08.752Z,24.33
2018-03-06T22:52:36.236Z,23.70
2018-03-06T22:55:03.723Z,21.87
2018-03-06T22:57:31.244Z,29.97
2018-03-06T22:59:58.737Z,25.40
2018-03-06T23:02:26.202Z,26.70
2018-03-06T23:04:53.672Z,26.40
2018-03-06T23:07:29.358Z,26.73
2018-03-06T23:09:56.890Z,25.40
2018-03-06T23:12:27.564Z,28.60
2018-03-06T23:14:55.038Z,24.63
2018-03-06T23:17:22.535Z,26.77
2018-03-06T23:19:50.003Z,28.77
2018-03-06T23:22:23.966Z,25.87
2018-03-06T23:24:51.437Z,30.30
2018-03-06T23:27:18.908Z,30.93
2018-03-06T23:29:46.386Z,28.83
2018-03-06T23:32:13.846Z,27.63
2018-03-06T23:34:45.293Z,35.13
2018-03-06T23:37:12.779Z,27.90
2018-03-06T23:39:40.243Z,31.30
2018-03-06T23:42:07.808Z,29.03
2018-03-06T23:44:35.281Z,36.90
2018-03-06T23:47:02.780Z,37.43
2018-03-06T23:49:30.270Z,31.37
2018-03-06T23:51:57.740Z,26.07
2018-03-06T23:54:25.234Z,31.30
2018-03-06T23:56:52.717Z,31.97
2018-03-06T23:59:20.207Z,31.47
